< < Back
Terminal Aerodrome Forecast


Current Version              Previous Versions:   1  2  3  4  5  6  7  8  9  

Terminal Aerodrome Forecast

813
FTUS44 KMRX 312325
TAFCHA
TAF
KCHA 312325Z 0100/0124 36004KT P6SM BKN150
     FM010700 16004KT P6SM OVC100
     FM011400 16008KT P6SM BKN035
     FM011900 17012KT 4SM -RA OVC020
     FM012200 18012KT 2SM RA OVC007=



Latest METAR

566
SAUS80 KWBC 010800 RRF
MTRCHA
METAR KCHA 010753Z AUTO 00000KT 10SM CLR 04/M03 A3023 RMK AO2 SLP239
T00391028


USA.gov is the U.S. government's official web portal to all federal, state and local government web resources and services.